createdAt,value
2023-05-19T00:00:12.334Z,98635.84
2023-05-19T00:02:41.733Z,98631.53
2023-05-19T00:05:11.658Z,98629.88
2023-05-19T00:07:40.355Z,98627.41
2023-05-19T00:10:09.795Z,98624.88
2023-05-19T00:12:40.082Z,98631.78
2023-05-19T00:15:10.730Z,98626.56
2023-05-19T00:17:42.547Z,98623.47
2023-05-19T00:20:12.802Z,98626.91
2023-05-19T00:22:44.160Z,98628.88
2023-05-19T00:25:12.653Z,98620.31
2023-05-19T00:27:42.252Z,98622.06
2023-05-19T00:30:10.952Z,98616.00
2023-05-19T00:32:39.424Z,98617.75
2023-05-19T00:35:08.953Z,98614.44
2023-05-19T00:37:37.257Z,98616.91
2023-05-19T00:40:06.856Z,98616.06
2023-05-19T00:42:35.163Z,98610.09
2023-05-19T00:45:05.246Z,98610.09
2023-05-19T00:47:33.537Z,98605.22
2023-05-19T00:50:02.030Z,98607.78
2023-05-19T00:52:30.379Z,98596.66
2023-05-19T00:54:58.560Z,98578.97
2023-05-19T00:57:27.292Z,98601.84
2023-05-19T00:59:55.656Z,98593.34
2023-05-19T01:02:25.651Z,98590.78
2023-05-19T01:04:57.722Z,98592.56
2023-05-19T01:07:26.306Z,98594.13
2023-05-19T01:09:54.887Z,98582.16
2023-05-19T01:12:23.121Z,98592.34
2023-05-19T01:14:51.483Z,98589.72
2023-05-19T01:17:25.696Z,98586.31
2023-05-19T01:20:06.615Z,98576.84
2023-05-19T01:22:55.068Z,98575.13
2023-05-19T01:26:14.032Z,98574.38
2023-05-19T01:29:04.544Z,98574.38
2023-05-19T01:31:35.412Z,98577.84
2023-05-19T01:34:06.040Z,98554.31
2023-05-19T01:36:35.258Z,98575.50
2023-05-19T01:39:04.380Z,98576.34
2023-05-19T01:41:34.002Z,98575.66
2023-05-19T01:44:02.376Z,98580.09
2023-05-19T01:46:30.689Z,98572.44
2023-05-19T01:49:00.831Z,98575.16
2023-05-19T01:51:29.004Z,98570.03
2023-05-19T01:53:57.080Z,98579.47
2023-05-19T01:56:35.260Z,98572.69
2023-05-19T01:59:23.321Z,98576.13
2023-05-19T02:01:56.019Z,98579.63
2023-05-19T02:04:32.977Z,98583.88
2023-05-19T02:07:06.770Z,98583.03
2023-05-19T02:09:41.275Z,98587.34
2023-05-19T02:12:18.500Z,98580.47
2023-05-19T02:14:53.142Z,98592.47
2023-05-19T02:17:24.717Z,98589.72
2023-05-19T02:19:54.275Z,98584.63
2023-05-19T02:22:22.424Z,98581.22
2023-05-19T02:24:51.957Z,98578.63
2023-05-19T02:27:20.167Z,98579.47
2023-05-19T02:29:48.393Z,98581.22
2023-05-19T02:32:16.969Z,98578.69
2023-05-19T02:34:45.676Z,98568.41
2023-05-19T02:37:15.847Z,98551.59
2023-05-19T02:39:44.124Z,98549.84
2023-05-19T02:42:12.603Z,98560.81
2023-05-19T02:44:40.943Z,98555.84
2023-05-19T02:47:09.017Z,98556.69
2023-05-19T02:49:37.300Z,98557.56
2023-05-19T02:52:06.272Z,98532.00
2023-05-19T02:54:36.177Z,98550.69
2023-05-19T02:57:04.637Z,98538.78
2023-05-19T02:59:32.676Z,98544.75
2023-05-19T03:02:02.257Z,98548.97
2023-05-19T03:04:30.841Z,98552.28
2023-05-19T03:06:58.949Z,98549.78
2023-05-19T03:09:27.145Z,98555.75
2023-05-19T03:11:56.703Z,98538.72
2023-05-19T03:14:25.073Z,98549.78
2023-05-19T03:16:53.768Z,98550.59
2023-05-19T03:19:22.461Z,98556.53
2023-05-19T03:21:51.015Z,98542.03
2023-05-19T03:24:19.276Z,98559.06
2023-05-19T03:26:47.903Z,98554.00
2023-05-19T03:29:17.574Z,98553.13
2023-05-19T03:31:45.760Z,98544.75
2023-05-19T03:34:13.949Z,98546.44
2023-05-19T03:36:42.063Z,98566.72
2023-05-19T03:39:11.231Z,98569.34
2023-05-19T03:41:39.422Z,98536.16
2023-05-19T03:44:07.567Z,98560.69
2023-05-19T03:46:37.198Z,98559.88
2023-05-19T03:49:05.474Z,98567.56
2023-05-19T03:51:35.091Z,98569.28
2023-05-19T03:54:03.733Z,98569.97
2023-05-19T03:56:33.060Z,98564.94
2023-05-19T03:59:01.983Z,98579.38
2023-05-19T04:01:30.670Z,98580.16
2023-05-19T04:04:00.334Z,98584.47
2023-05-19T04:06:28.926Z,98580.84
2023-05-19T04:08:57.288Z,98586.91
2023-05-19T04:11:26.139Z,98580.84
2023-05-19T04:13:54.731Z,98588.47
2023-05-19T04:16:23.307Z,98584.16
2023-05-19T04:18:51.765Z,98573.81
2023-05-19T04:21:22.502Z,98584.84
2023-05-19T04:23:50.847Z,98579.69
2023-05-19T04:26:19.713Z,98584.84
2023-05-19T04:28:48.434Z,98583.16
2023-05-19T04:31:16.832Z,98581.38
2023-05-19T04:33:45.300Z,98579.91
2023-05-19T04:36:13.803Z,98580.47
2023-05-19T04:38:43.826Z,98584.78
2023-05-19T04:41:12.215Z,98575.34
2023-05-19T04:43:44.699Z,98587.13
2023-05-19T04:46:13.858Z,98578.34
2023-05-19T04:48:42.934Z,98570.84
2023-05-19T04:51:14.441Z,98573.44
2023-05-19T04:53:44.832Z,98581.97
2023-05-19T04:56:15.577Z,98582.78
2023-05-19T04:58:44.923Z,98577.63
2023-05-19T05:01:16.028Z,98575.66
2023-05-19T05:03:44.738Z,98580.84
2023-05-19T05:06:12.925Z,98573.97
2023-05-19T05:08:41.523Z,98585.75
2023-05-19T05:11:13.290Z,98585.78
2023-05-19T05:13:42.483Z,98586.72
2023-05-19T05:16:12.438Z,98569.72
2023-05-19T05:18:42.790Z,98574.00
2023-05-19T05:21:13.761Z,98567.28
2023-05-19T05:23:42.747Z,98578.47
2023-05-19T05:26:21.561Z,98575.78
2023-05-19T05:28:50.446Z,98574.19
2023-05-19T05:31:18.761Z,98562.84
2023-05-19T05:33:47.061Z,98563.22
2023-05-19T05:36:15.414Z,98563.78
2023-05-19T05:38:43.687Z,98559.31
2023-05-19T05:41:13.218Z,98561.00
2023-05-19T05:43:41.330Z,98572.53
2023-05-19T05:46:09.553Z,98571.94
2023-05-19T05:48:38.508Z,98538.06
2023-05-19T05:51:08.252Z,98564.41
2023-05-19T05:53:42.051Z,98562.09
2023-05-19T05:56:14.346Z,98563.03
2023-05-19T05:58:43.027Z,98565.88
2023-05-19T06:01:11.676Z,98545.59
2023-05-19T06:03:41.819Z,98560.38
2023-05-19T06:06:10.185Z,98568.81
2023-05-19T06:08:38.702Z,98572.25
2023-05-19T06:11:09.003Z,98572.53
2023-05-19T06:13:39.689Z,98571.31
2023-05-19T06:16:08.420Z,98563.44
2023-05-19T06:18:36.849Z,98564.91
2023-05-19T06:21:05.536Z,98556.47
2023-05-19T06:23:33.632Z,98554.81
2023-05-19T06:26:01.958Z,98556.41
2023-05-19T06:28:30.183Z,98552.22
2023-05-19T06:31:00.268Z,98565.94
2023-05-19T06:33:29.284Z,98552.41
2023-05-19T06:35:57.795Z,98566.31
2023-05-19T06:38:26.214Z,98565.03
2023-05-19T06:40:54.622Z,98568.16
2023-05-19T06:43:22.960Z,98558.69
2023-05-19T06:45:51.642Z,98567.63
2023-05-19T06:48:21.354Z,98566.22
2023-05-19T06:50:50.752Z,98556.19
2023-05-19T06:53:21.082Z,98554.72
2023-05-19T06:55:59.591Z,98557.78
2023-05-19T06:58:28.418Z,98552.22
2023-05-19T07:00:56.923Z,98558.94
2023-05-19T07:03:27.320Z,98559.97
2023-05-19T07:05:56.688Z,98549.94
2023-05-19T07:08:25.330Z,98549.94
2023-05-19T07:10:53.795Z,98553.53
2023-05-19T07:13:22.040Z,98536.44
2023-05-19T07:15:52.533Z,98539.19
2023-05-19T07:18:21.169Z,98537.72
2023-05-19T07:20:50.755Z,98535.06
2023-05-19T07:23:18.989Z,98535.41
2023-05-19T07:25:47.661Z,98537.22
2023-05-19T07:28:15.864Z,98524.13
2023-05-19T07:30:44.239Z,98529.94
2023-05-19T07:33:12.763Z,98532.06
2023-05-19T07:35:41.491Z,98531.41
2023-05-19T07:38:10.997Z,98522.19
2023-05-19T07:40:39.332Z,98521.06
2023-05-19T07:43:07.493Z,98519.06
2023-05-19T07:45:35.657Z,98500.25
2023-05-19T07:48:04.277Z,98525.97
2023-05-19T07:50:32.859Z,98523.91
2023-05-19T07:53:01.025Z,98518.78
2023-05-19T07:55:30.952Z,98522.13
2023-05-19T07:57:59.388Z,98506.25
2023-05-19T08:00:27.955Z,98518.03
2023-05-19T08:02:57.122Z,98517.75
2023-05-19T08:05:26.633Z,98517.78
2023-05-19T08:07:54.919Z,98512.94
2023-05-19T08:10:23.058Z,98516.97
2023-05-19T08:12:52.525Z,98511.19
2023-05-19T08:15:21.037Z,98512.75
2023-05-19T08:17:50.280Z,98525.44
2023-05-19T08:20:18.786Z,98516.78
2023-05-19T08:22:47.106Z,98517.25
2023-05-19T08:25:15.150Z,98509.81
2023-05-19T08:27:44.042Z,98499.03
2023-05-19T08:30:14.578Z,98510.69
2023-05-19T08:32:42.884Z,98513.13
2023-05-19T08:35:11.639Z,98499.78
2023-05-19T08:37:39.959Z,98498.28
2023-05-19T08:40:11.992Z,98481.66
2023-05-19T08:42:40.501Z,98495.31
2023-05-19T08:45:09.746Z,98494.03
2023-05-19T08:47:39.974Z,98488.09
2023-05-19T08:50:11.009Z,98493.38
2023-05-19T08:52:53.418Z,98488.44
2023-05-19T08:55:34.440Z,98498.66
2023-05-19T08:58:04.958Z,98495.31
2023-05-19T09:00:34.135Z,98483.94
2023-05-19T09:03:17.526Z,98490.94
2023-05-19T09:05:52.197Z,98484.16
2023-05-19T09:08:21.367Z,98482.44
2023-05-19T09:10:50.074Z,98489.53
2023-05-19T09:13:19.088Z,98477.00
2023-05-19T09:15:48.412Z,98457.44
2023-05-19T09:18:18.724Z,98472.75
2023-05-19T09:20:47.540Z,98493.56
2023-05-19T09:23:17.339Z,98488.75
2023-05-19T09:25:50.072Z,98484.41
2023-05-19T09:31:05.882Z,98477.38
2023-05-19T09:33:35.901Z,98477.88
2023-05-19T09:36:06.217Z,98485.78
2023-05-19T09:38:34.557Z,98487.47
2023-05-19T09:41:03.617Z,98488.09
2023-05-19T09:43:34.345Z,98481.00
2023-05-19T09:46:06.231Z,98481.09
2023-05-19T09:48:34.665Z,98480.75
2023-05-19T09:51:03.503Z,98473.78
2023-05-19T09:53:32.743Z,98466.44
2023-05-19T09:56:03.647Z,98468.91
2023-05-19T09:58:34.848Z,98470.16
2023-05-19T10:01:05.762Z,98468.28
2023-05-19T10:03:35.412Z,98468.22
2023-05-19T10:06:07.087Z,98447.59
2023-05-19T10:08:36.083Z,98451.34
2023-05-19T10:11:04.988Z,98451.56
2023-05-19T10:13:36.048Z,98446.00
2023-05-19T10:16:07.141Z,98436.66
2023-05-19T10:18:38.387Z,98439.28
2023-05-19T10:21:09.558Z,98435.03
2023-05-19T10:23:38.046Z,98438.22
2023-05-19T10:26:07.963Z,98413.28
2023-05-19T10:28:39.445Z,98423.91
2023-05-19T10:31:13.037Z,98401.34
2023-05-19T10:33:55.471Z,98408.44
2023-05-19T10:36:40.539Z,98414.25
2023-05-19T10:39:16.792Z,98410.22
2023-05-19T10:41:52.966Z,98414.31
2023-05-19T10:44:47.836Z,98408.56
2023-05-19T10:47:24.935Z,98418.63
2023-05-19T10:49:55.121Z,98409.00
2023-05-19T10:52:26.160Z,98413.44
2023-05-19T10:54:55.516Z,98407.75
2023-05-19T10:57:30.746Z,98407.72
2023-05-19T11:00:00.869Z,98385.38
2023-05-19T11:02:56.414Z,98415.38
2023-05-19T11:05:31.605Z,98401.78
2023-05-19T11:08:02.658Z,98404.91
2023-05-19T11:10:31.662Z,98373.31
2023-05-19T11:12:59.968Z,98400.44
2023-05-19T11:15:29.590Z,98410.03
2023-05-19T11:18:02.553Z,98406.09
2023-05-19T11:20:32.123Z,98407.81
2023-05-19T11:23:08.233Z,98400.84
2023-05-19T11:25:44.030Z,98400.19
2023-05-19T11:28:14.401Z,98399.94
2023-05-19T11:30:44.599Z,98387.03
2023-05-19T11:33:15.399Z,98391.13
2023-05-19T11:35:47.106Z,98380.69
2023-05-19T11:38:15.814Z,98379.69
2023-05-19T11:40:47.053Z,98383.34
2023-05-19T11:43:15.245Z,98362.69
2023-05-19T11:45:44.001Z,98373.47
2023-05-19T11:48:16.034Z,98380.69
2023-05-19T11:50:45.097Z,98372.25
2023-05-19T11:53:14.211Z,98361.59
2023-05-19T11:55:47.352Z,98355.91
2023-05-19T11:58:16.363Z,98347.28
2023-05-19T12:00:47.686Z,98345.25
2023-05-19T12:03:23.232Z,98352.94
2023-05-19T12:05:51.954Z,98344.38
2023-05-19T12:08:20.222Z,98338.97
2023-05-19T12:10:51.103Z,98303.34
2023-05-19T12:13:21.315Z,98334.94
2023-05-19T12:15:52.175Z,98337.09
2023-05-19T12:18:21.965Z,98337.00
2023-05-19T12:20:50.552Z,98329.25
2023-05-19T12:23:19.034Z,98328.09
2023-05-19T12:25:47.604Z,98327.63
2023-05-19T12:28:17.857Z,98321.00
2023-05-19T12:30:49.417Z,98324.22
2023-05-19T12:33:17.601Z,98333.91
2023-05-19T12:35:47.985Z,98329.47
2023-05-19T12:38:16.811Z,98329.22
2023-05-19T12:40:45.923Z,98323.00
2023-05-19T12:43:21.524Z,98314.72
2023-05-19T12:45:50.263Z,98317.19
2023-05-19T12:48:20.212Z,98314.44
2023-05-19T12:50:53.170Z,98309.84
2023-05-19T12:53:21.432Z,98295.06
2023-05-19T12:55:50.061Z,98310.25
2023-05-19T12:58:18.841Z,98306.66
2023-05-19T13:00:49.876Z,98299.50
2023-05-19T13:03:19.915Z,98294.91
2023-05-19T13:05:51.715Z,98307.69
2023-05-19T13:08:21.990Z,98301.53
2023-05-19T13:10:50.457Z,98297.09
2023-05-19T13:13:19.560Z,98308.00
2023-05-19T13:15:49.495Z,98300.97
2023-05-19T13:18:18.493Z,98295.88
2023-05-19T13:20:50.541Z,98297.28
2023-05-19T13:23:20.165Z,98283.84
2023-05-19T13:25:48.324Z,98284.00
2023-05-19T13:28:16.814Z,98291.72
2023-05-19T13:30:46.345Z,98287.09
2023-05-19T13:33:14.863Z,98280.03
2023-05-19T13:35:43.267Z,98287.22
2023-05-19T13:38:12.548Z,98275.09
2023-05-19T13:40:42.317Z,98271.31
2023-05-19T13:43:10.660Z,98283.09
2023-05-19T13:45:39.299Z,98277.13
2023-05-19T13:48:08.864Z,98270.13
2023-05-19T13:50:37.416Z,98269.75
2023-05-19T13:53:05.740Z,98277.28
2023-05-19T13:55:34.624Z,98279.66
2023-05-19T13:58:04.794Z,98282.44
2023-05-19T14:00:33.589Z,98273.72
2023-05-19T14:03:02.006Z,98278.31
2023-05-19T14:05:31.260Z,98278.06
2023-05-19T14:08:01.371Z,98278.53
2023-05-19T14:10:29.736Z,98267.44
2023-05-19T14:15:38.546Z,98265.94
2023-05-19T14:18:07.389Z,98260.59
2023-05-19T14:20:36.248Z,98243.78
2023-05-19T14:23:04.884Z,98257.25
2023-05-19T14:25:33.311Z,98259.31
2023-05-19T14:28:02.059Z,98260.06
2023-05-19T14:30:30.312Z,98251.28
2023-05-19T14:32:59.965Z,98249.91
2023-05-19T14:35:28.679Z,98243.81
2023-05-19T14:37:56.991Z,98243.56
2023-05-19T14:40:25.649Z,98244.81
2023-05-19T14:42:53.863Z,98240.50
2023-05-19T14:45:22.529Z,98238.72
2023-05-19T14:47:51.006Z,98230.66
2023-05-19T14:50:20.735Z,98240.47
2023-05-19T14:52:49.320Z,98235.16
2023-05-19T14:55:17.785Z,98237.59
2023-05-19T14:57:46.126Z,98234.41
2023-05-19T15:00:15.574Z,98231.84
2023-05-19T15:02:43.751Z,98227.13
2023-05-19T15:05:12.411Z,98229.53
2023-05-19T15:07:42.628Z,98218.50
2023-05-19T15:10:11.262Z,98230.38
2023-05-19T15:12:39.695Z,98229.31
2023-05-19T15:15:09.165Z,98204.84
2023-05-19T15:17:37.870Z,98236.03
2023-05-19T15:20:07.255Z,98248.84
2023-05-19T15:22:35.684Z,98248.28
2023-05-19T15:25:05.815Z,98229.38
2023-05-19T15:27:35.493Z,98242.16
2023-05-19T15:30:03.826Z,98234.44
2023-05-19T15:32:32.603Z,98237.50
2023-05-19T15:35:00.880Z,98231.53
2023-05-19T15:37:29.282Z,98227.63
2023-05-19T15:39:57.670Z,98227.63
2023-05-19T15:42:27.691Z,98240.84
2023-05-19T15:44:56.050Z,98257.94
2023-05-19T15:47:24.311Z,98254.66
2023-05-19T15:49:52.776Z,98230.72
2023-05-19T15:52:21.145Z,98252.06
2023-05-19T15:54:50.214Z,98250.13
2023-05-19T15:57:18.428Z,98247.75
2023-05-19T15:59:48.160Z,98248.69
2023-05-19T16:02:16.559Z,98247.53
2023-05-19T16:04:44.874Z,98248.06
2023-05-19T16:07:13.222Z,98248.91
2023-05-19T16:09:41.632Z,98244.44
2023-05-19T16:12:09.979Z,98242.81
2023-05-19T16:14:38.396Z,98246.56
2023-05-19T16:17:13.024Z,98231.72
2023-05-19T16:19:42.385Z,98215.25
2023-05-19T16:22:10.730Z,98219.78
2023-05-19T16:24:39.454Z,98223.44
2023-05-19T16:27:07.643Z,98232.75
2023-05-19T16:29:35.972Z,98224.81
2023-05-19T16:32:04.450Z,98223.38
2023-05-19T16:34:34.826Z,98223.16
2023-05-19T16:37:03.489Z,98232.22
2023-05-19T16:39:32.012Z,98229.84
2023-05-19T16:42:00.144Z,98228.50
2023-05-19T16:44:28.674Z,98240.84
2023-05-19T16:46:57.016Z,98233.00
2023-05-19T16:49:25.335Z,98232.69
2023-05-19T16:51:55.926Z,98239.81
2023-05-19T16:54:24.912Z,98235.59
2023-05-19T16:56:55.513Z,98226.19
2023-05-19T16:59:23.719Z,98236.25
2023-05-19T17:01:52.113Z,98225.94
2023-05-19T17:04:20.505Z,98223.50
2023-05-19T17:06:48.985Z,98226.69
2023-05-19T17:09:24.994Z,98226.00
2023-05-19T17:11:53.999Z,98231.22
2023-05-19T17:14:23.815Z,98227.19
2023-05-19T17:16:52.725Z,98228.34
2023-05-19T17:19:21.124Z,98229.34
2023-05-19T17:21:49.268Z,98226.84
2023-05-19T17:24:19.168Z,98230.44
2023-05-19T17:26:47.338Z,98237.94
2023-05-19T17:29:15.909Z,98238.97
2023-05-19T17:31:44.360Z,98244.53
2023-05-19T17:34:12.828Z,98244.53
2023-05-19T17:36:41.080Z,98227.09
2023-05-19T17:39:09.426Z,98234.50
2023-05-19T17:41:39.084Z,98244.84
2023-05-19T17:44:07.881Z,98237.94
2023-05-19T17:46:36.352Z,98239.31
2023-05-19T17:49:04.747Z,98237.09
2023-05-19T17:51:36.201Z,98244.06
2023-05-19T17:54:05.501Z,98235.72
2023-05-19T17:56:35.609Z,98250.50
2023-05-19T17:59:06.003Z,98243.00
2023-05-19T18:01:34.968Z,98245.59
2023-05-19T18:04:03.884Z,98244.66
2023-05-19T18:06:32.832Z,98245.75
2023-05-19T18:09:08.067Z,98242.41
2023-05-19T18:11:36.775Z,98243.94
2023-05-19T18:14:06.996Z,98242.41
2023-05-19T18:16:35.592Z,98242.41
2023-05-19T18:19:04.793Z,98244.31
2023-05-19T18:21:34.250Z,98239.34
2023-05-19T18:24:04.626Z,98236.72
2023-05-19T18:26:33.239Z,98246.53
2023-05-19T18:29:05.055Z,98224.97
2023-05-19T18:31:34.783Z,98230.31
2023-05-19T18:34:03.442Z,98244.03
2023-05-19T18:36:31.818Z,98242.53
2023-05-19T18:39:00.394Z,98246.19
2023-05-19T18:41:29.124Z,98240.31
2023-05-19T18:43:57.799Z,98228.00
2023-05-19T18:46:26.589Z,98245.25
2023-05-19T18:48:56.426Z,98248.19
2023-05-19T18:51:25.002Z,98239.16
2023-05-19T18:53:53.383Z,98240.41
2023-05-19T18:56:26.261Z,98247.63
2023-05-19T18:58:55.382Z,98248.91
2023-05-19T19:01:23.663Z,98253.75
2023-05-19T19:03:52.160Z,98259.84
2023-05-19T19:06:23.284Z,98261.09
2023-05-19T19:08:51.593Z,98266.41
2023-05-19T19:11:19.938Z,98266.84
2023-05-19T19:13:51.421Z,98267.81
2023-05-19T19:16:20.018Z,98285.31
2023-05-19T19:18:48.463Z,98275.22
2023-05-19T19:21:19.369Z,98278.84
2023-05-19T19:23:49.062Z,98280.13
2023-05-19T19:26:17.675Z,98277.19
2023-05-19T19:28:46.462Z,98281.47
2023-05-19T19:31:14.988Z,98284.31
2023-05-19T19:33:43.915Z,98273.66
2023-05-19T19:36:12.507Z,98283.78
2023-05-19T19:38:41.078Z,98287.47
2023-05-19T19:41:11.239Z,98292.97
2023-05-19T19:43:39.636Z,98288.03
2023-05-19T19:46:09.433Z,98294.66
2023-05-19T19:48:38.793Z,98296.59
2023-05-19T19:51:07.034Z,98298.75
2023-05-19T19:53:35.488Z,98303.00
2023-05-19T19:56:05.299Z,98304.38
2023-05-19T19:58:35.337Z,98307.81
2023-05-19T20:01:06.115Z,98300.78
2023-05-19T20:03:35.322Z,98301.63
2023-05-19T20:06:03.845Z,98284.78
2023-05-19T20:08:32.061Z,98292.06
2023-05-19T20:11:00.928Z,98280.91
2023-05-19T20:13:30.630Z,98287.31
2023-05-19T20:16:01.569Z,98294.38
2023-05-19T20:18:30.139Z,98294.63
2023-05-19T20:20:58.642Z,98291.66
2023-05-19T20:23:27.056Z,98295.41
2023-05-19T20:26:11.136Z,98291.50
2023-05-19T20:28:40.718Z,98284.88
2023-05-19T20:31:10.683Z,98293.72
2023-05-19T20:33:39.122Z,98291.94
2023-05-19T20:36:08.463Z,98300.22
2023-05-19T20:38:36.791Z,98299.63
2023-05-19T20:41:05.209Z,98297.28
2023-05-19T20:43:33.968Z,98286.69
2023-05-19T20:46:04.132Z,98290.78
2023-05-19T20:48:33.803Z,98300.41
2023-05-19T20:51:02.483Z,98300.28
2023-05-19T20:53:30.727Z,98295.34
2023-05-19T20:55:58.846Z,98297.13
2023-05-19T20:58:30.304Z,98292.91
2023-05-19T21:00:58.809Z,98286.28
2023-05-19T21:03:28.761Z,98297.47
2023-05-19T21:05:58.392Z,98296.63
2023-05-19T21:08:26.857Z,98308.22
2023-05-19T21:10:54.942Z,98301.28
2023-05-19T21:13:23.148Z,98304.00
2023-05-19T21:15:51.331Z,98306.66
2023-05-19T21:18:19.523Z,98301.03
2023-05-19T21:20:47.779Z,98297.94
2023-05-19T21:23:17.595Z,98300.66
2023-05-19T21:25:45.952Z,98301.63
2023-05-19T21:28:14.265Z,98301.78
2023-05-19T21:30:42.522Z,98301.00
2023-05-19T21:33:11.785Z,98305.16
2023-05-19T21:35:40.126Z,98291.59
2023-05-19T21:38:19.623Z,98302.69
2023-05-19T21:40:54.284Z,98298.19
2023-05-19T21:43:23.322Z,98295.94
2023-05-19T21:45:51.810Z,98281.75
2023-05-19T21:48:20.133Z,98305.72
2023-05-19T21:50:53.808Z,98299.09
2023-05-19T21:53:22.072Z,98285.38
2023-05-19T21:55:50.352Z,98290.38
2023-05-19T21:58:20.511Z,98291.38
2023-05-19T22:00:52.830Z,98294.03
2023-05-19T22:03:21.966Z,98280.59
2023-05-19T22:05:50.779Z,98297.75
2023-05-19T22:08:20.003Z,98279.09
2023-05-19T22:10:51.044Z,98291.47
2023-05-19T22:13:21.504Z,98286.00
2023-05-19T22:15:49.714Z,98279.72
2023-05-19T22:18:18.044Z,98280.47
2023-05-19T22:20:46.148Z,98276.94
2023-05-19T22:23:14.303Z,98269.91
2023-05-19T22:25:42.425Z,98273.44
2023-05-19T22:28:10.641Z,98276.03
2023-05-19T22:30:42.200Z,98281.91
2023-05-19T22:33:11.442Z,98272.28
2023-05-19T22:35:40.209Z,98270.63
2023-05-19T22:38:10.507Z,98268.88
2023-05-19T22:40:39.071Z,98264.56
2023-05-19T22:43:07.194Z,98256.06
2023-05-19T22:45:36.182Z,98248.44
2023-05-19T22:48:06.505Z,98260.22
2023-05-19T22:50:34.902Z,98255.97
2023-05-19T22:53:03.144Z,98255.22
2023-05-19T22:55:31.374Z,98253.41
2023-05-19T22:57:59.540Z,98256.81
2023-05-19T23:00:27.636Z,98256.81
2023-05-19T23:02:55.734Z,98249.88
2023-05-19T23:05:25.608Z,98257.63
2023-05-19T23:07:54.004Z,98251.75
2023-05-19T23:10:22.124Z,98253.63
2023-05-19T23:12:51.769Z,98254.59
2023-05-19T23:15:19.927Z,98256.25
2023-05-19T23:17:47.989Z,98243.50
2023-05-19T23:20:16.284Z,98242.44
2023-05-19T23:22:46.080Z,98229.72
2023-05-19T23:25:14.224Z,98244.72
2023-05-19T23:27:42.852Z,98236.94
2023-05-19T23:30:11.380Z,98233.47
2023-05-19T23:32:41.091Z,98224.19
2023-05-19T23:35:13.707Z,98232.50
2023-05-19T23:37:41.965Z,98227.44
2023-05-19T23:40:12.497Z,98230.72
2023-05-19T23:42:40.921Z,98230.72
2023-05-19T23:45:10.038Z,98228.81
2023-05-19T23:47:38.401Z,98225.44
2023-05-19T23:50:07.104Z,98228.81
2023-05-19T23:52:35.432Z,98228.59
2023-05-19T23:55:04.148Z,98225.72
2023-05-19T23:57:33.746Z,98223.22
